sensor_id;sensor_type;location;lat;lon;timestamp;pressure;altitude;pressure_sealevel;temperature;humidity
64967;BME280;51710;38.732;-121.358;2023-07-13T00:00:42;100650.31;;;36.22;23.23
64967;BME280;51710;38.732;-121.358;2023-07-13T00:03:08;100648.38;;;36.14;23.28
64967;BME280;51710;38.732;-121.358;2023-07-13T00:05:35;100641.84;;;36.10;23.45
64967;BME280;51710;38.732;-121.358;2023-07-13T00:08:01;100646.09;;;36.16;22.86
64967;BME280;51710;38.732;-121.358;2023-07-13T00:10:28;100648.19;;;36.19;21.77
64967;BME280;51710;38.732;-121.358;2023-07-13T00:12:54;100638.22;;;36.18;22.82
64967;BME280;51710;38.732;-121.358;2023-07-13T00:15:25;100639.06;;;36.18;22.36
64967;BME280;51710;38.732;-121.358;2023-07-13T00:17:53;100634.31;;;36.19;22.52
64967;BME280;51710;38.732;-121.358;2023-07-13T00:20:21;100628.09;;;36.22;22.52
64967;BME280;51710;38.732;-121.358;2023-07-13T00:22:49;100631.38;;;36.24;21.92
64967;BME280;51710;38.732;-121.358;2023-07-13T00:25:16;100621.88;;;36.25;22.55
64967;BME280;51710;38.732;-121.358;2023-07-13T00:27:43;100619.28;;;36.20;23.08
64967;BME280;51710;38.732;-121.358;2023-07-13T00:30:10;100624.03;;;36.11;24.11
64967;BME280;51710;38.732;-121.358;2023-07-13T00:32:37;100623.41;;;36.14;24.49
64967;BME280;51710;38.732;-121.358;2023-07-13T00:35:04;100624.50;;;36.21;23.94
64967;BME280;51710;38.732;-121.358;2023-07-13T00:37:31;100618.00;;;36.26;23.32
64967;BME280;51710;38.732;-121.358;2023-07-13T00:39:57;100621.28;;;36.11;23.73
64967;BME280;51710;38.732;-121.358;2023-07-13T00:42:23;100621.94;;;36.08;23.49
64967;BME280;51710;38.732;-121.358;2023-07-13T00:47:40;100622.59;;;36.05;23.10
64967;BME280;51710;38.732;-121.358;2023-07-13T00:50:10;100621.94;;;35.99;23.01
64967;BME280;51710;38.732;-121.358;2023-07-13T00:52:40;100629.13;;;35.92;23.08
64967;BME280;51710;38.732;-121.358;2023-07-13T00:55:09;100623.44;;;35.88;23.09
64967;BME280;51710;38.732;-121.358;2023-07-13T00:57:37;100623.22;;;35.85;22.69
64967;BME280;51710;38.732;-121.358;2023-07-13T01:00:06;100619.16;;;35.82;23.31
64967;BME280;51710;38.732;-121.358;2023-07-13T01:02:39;100614.28;;;35.79;23.02
64967;BME280;51710;38.732;-121.358;2023-07-13T01:05:19;100620.31;;;35.73;23.04
64967;BME280;51710;38.732;-121.358;2023-07-13T01:07:48;100614.44;;;35.66;23.52
64967;BME280;51710;38.732;-121.358;2023-07-13T01:10:16;100618.19;;;35.61;24.33
64967;BME280;51710;38.732;-121.358;2023-07-13T01:12:43;100613.94;;;35.55;24.57
64967;BME280;51710;38.732;-121.358;2023-07-13T01:15:35;100609.38;;;35.42;24.76
64967;BME280;51710;38.732;-121.358;2023-07-13T01:18:03;100609.34;;;35.34;25.35
64967;BME280;51710;38.732;-121.358;2023-07-13T01:20:30;100616.72;;;35.55;25.69
64967;BME280;51710;38.732;-121.358;2023-07-13T01:23:06;100624.06;;;35.94;25.43
64967;BME280;51710;38.732;-121.358;2023-07-13T01:25:34;100619.03;;;35.96;24.97
64967;BME280;51710;38.732;-121.358;2023-07-13T01:28:02;100619.50;;;35.81;25.18
64967;BME280;51710;38.732;-121.358;2023-07-13T01:30:30;100612.31;;;35.63;25.10
64967;BME280;51710;38.732;-121.358;2023-07-13T01:32:58;100610.69;;;35.45;25.53
64967;BME280;51710;38.732;-121.358;2023-07-13T01:35:25;100603.16;;;35.37;25.56
64967;BME280;51710;38.732;-121.358;2023-07-13T01:37:53;100610.63;;;35.28;25.55
64967;BME280;51710;38.732;-121.358;2023-07-13T01:40:20;100614.22;;;35.20;25.58
64967;BME280;51710;38.732;-121.358;2023-07-13T01:42:46;100615.81;;;35.12;25.57
64967;BME280;51710;38.732;-121.358;2023-07-13T01:45:13;100615.47;;;35.05;25.84
64967;BME280;51710;38.732;-121.358;2023-07-13T01:47:39;100612.03;;;34.99;25.45
64967;BME280;51710;38.732;-121.358;2023-07-13T01:50:05;100612.69;;;34.96;25.59
64967;BME280;51710;38.732;-121.358;2023-07-13T01:52:32;100613.97;;;34.90;25.05
64967;BME280;51710;38.732;-121.358;2023-07-13T01:54:58;100611.97;;;34.82;25.35
64967;BME280;51710;38.732;-121.358;2023-07-13T01:57:24;100611.00;;;34.78;25.32
64967;BME280;51710;38.732;-121.358;2023-07-13T01:59:50;100613.09;;;34.73;25.98
64967;BME280;51710;38.732;-121.358;2023-07-13T02:02:17;100611.75;;;34.70;25.94
64967;BME280;51710;38.732;-121.358;2023-07-13T02:04:43;100606.72;;;34.72;25.93
64967;BME280;51710;38.732;-121.358;2023-07-13T02:07:09;100618.44;;;34.69;26.42
64967;BME280;51710;38.732;-121.358;2023-07-13T02:09:36;100612.56;;;34.62;25.74
64967;BME280;51710;38.732;-121.358;2023-07-13T02:12:02;100611.56;;;34.58;26.22
64967;BME280;51710;38.732;-121.358;2023-07-13T02:14:28;100614.28;;;34.50;26.59
64967;BME280;51710;38.732;-121.358;2023-07-13T02:16:55;100616.88;;;34.46;26.15
64967;BME280;51710;38.732;-121.358;2023-07-13T02:19:21;100620.88;;;34.40;26.74
64967;BME280;51710;38.732;-121.358;2023-07-13T02:21:47;100618.69;;;34.29;26.44
64967;BME280;51710;38.732;-121.358;2023-07-13T02:24:14;100619.91;;;34.14;26.83
64967;BME280;51710;38.732;-121.358;2023-07-13T02:26:44;100620.47;;;34.02;26.98
64967;BME280;51710;38.732;-121.358;2023-07-13T02:29:10;100623.38;;;33.97;27.09
64967;BME280;51710;38.732;-121.358;2023-07-13T02:31:37;100618.28;;;33.91;26.27
64967;BME280;51710;38.732;-121.358;2023-07-13T02:34:04;100615.13;;;33.84;26.60
64967;BME280;51710;38.732;-121.358;2023-07-13T02:36:31;100624.47;;;33.74;25.95
64967;BME280;51710;38.732;-121.358;2023-07-13T02:39:02;100624.91;;;33.68;26.83
64967;BME280;51710;38.732;-121.358;2023-07-13T02:41:29;100623.06;;;33.63;26.61
64967;BME280;51710;38.732;-121.358;2023-07-13T02:43:55;100615.22;;;33.57;26.18
64967;BME280;51710;38.732;-121.358;2023-07-13T02:46:36;100622.06;;;33.59;26.79
64967;BME280;51710;38.732;-121.358;2023-07-13T02:49:03;100625.53;;;33.65;26.57
64967;BME280;51710;38.732;-121.358;2023-07-13T02:51:30;100625.03;;;33.63;26.07
64967;BME280;51710;38.732;-121.358;2023-07-13T02:53:59;100617.78;;;33.53;26.97
64967;BME280;51710;38.732;-121.358;2023-07-13T02:56:29;100624.38;;;33.44;27.32
64967;BME280;51710;38.732;-121.358;2023-07-13T02:58:56;100626.22;;;33.35;26.83
64967;BME280;51710;38.732;-121.358;2023-07-13T03:01:23;100622.94;;;33.33;27.20
64967;BME280;51710;38.732;-121.358;2023-07-13T03:03:50;100628.78;;;33.31;27.52
64967;BME280;51710;38.732;-121.358;2023-07-13T03:06:17;100626.56;;;33.20;28.03
64967;BME280;51710;38.732;-121.358;2023-07-13T03:08:44;100624.59;;;33.07;28.33
64967;BME280;51710;38.732;-121.358;2023-07-13T03:11:14;100630.34;;;32.96;28.27
64967;BME280;51710;38.732;-121.358;2023-07-13T03:13:42;100631.13;;;32.83;28.35
64967;BME280;51710;38.732;-121.358;2023-07-13T03:16:09;100629.50;;;32.69;29.77
64967;BME280;51710;38.732;-121.358;2023-07-13T03:18:37;100634.19;;;32.55;29.56
64967;BME280;51710;38.732;-121.358;2023-07-13T03:21:04;100641.84;;;32.44;30.41
64967;BME280;51710;38.732;-121.358;2023-07-13T03:23:31;100637.06;;;32.31;30.74
64967;BME280;51710;38.732;-121.358;2023-07-13T03:26:09;100642.25;;;32.19;31.62
64967;BME280;51710;38.732;-121.358;2023-07-13T03:28:36;100648.34;;;32.03;32.28
64967;BME280;51710;38.732;-121.358;2023-07-13T03:31:05;100652.66;;;31.90;32.36
64967;BME280;51710;38.732;-121.358;2023-07-13T03:33:32;100649.22;;;31.79;32.43
64967;BME280;51710;38.732;-121.358;2023-07-13T03:35:59;100650.47;;;31.68;32.37
64967;BME280;51710;38.732;-121.358;2023-07-13T03:38:25;100660.53;;;31.59;33.06
64967;BME280;51710;38.732;-121.358;2023-07-13T03:40:53;100654.94;;;31.46;33.66
64967;BME280;51710;38.732;-121.358;2023-07-13T03:43:19;100654.81;;;31.32;33.82
64967;BME280;51710;38.732;-121.358;2023-07-13T03:45:46;100659.66;;;31.22;34.31
64967;BME280;51710;38.732;-121.358;2023-07-13T03:48:14;100657.63;;;31.09;34.49
64967;BME280;51710;38.732;-121.358;2023-07-13T03:50:40;100661.31;;;30.99;34.64
64967;BME280;51710;38.732;-121.358;2023-07-13T03:53:07;100658.69;;;30.89;34.71
64967;BME280;51710;38.732;-121.358;2023-07-13T03:55:33;100666.47;;;30.82;34.67
64967;BME280;51710;38.732;-121.358;2023-07-13T03:58:22;100662.38;;;30.74;34.89
64967;BME280;51710;38.732;-121.358;2023-07-13T04:00:47;100666.34;;;30.63;35.21
64967;BME280;51710;38.732;-121.358;2023-07-13T04:03:13;100665.06;;;30.56;35.13
64967;BME280;51710;38.732;-121.358;2023-07-13T04:05:39;100673.41;;;30.46;35.52
64967;BME280;51710;38.732;-121.358;2023-07-13T04:08:06;100664.72;;;30.34;35.61
64967;BME280;51710;38.732;-121.358;2023-07-13T04:10:32;100666.47;;;30.25;35.61
64967;BME280;51710;38.732;-121.358;2023-07-13T04:12:59;100669.53;;;30.13;36.18
64967;BME280;51710;38.732;-121.358;2023-07-13T04:15:25;100674.28;;;30.03;36.20
64967;BME280;51710;38.732;-121.358;2023-07-13T04:17:52;100674.63;;;29.96;36.61
64967;BME280;51710;38.732;-121.358;2023-07-13T04:20:18;100686.78;;;29.90;36.39
64967;BME280;51710;38.732;-121.358;2023-07-13T04:22:46;100682.41;;;29.84;37.16
64967;BME280;51710;38.732;-121.358;2023-07-13T04:25:12;100692.59;;;29.78;36.66
64967;BME280;51710;38.732;-121.358;2023-07-13T04:27:38;100701.69;;;29.74;37.18
64967;BME280;51710;38.732;-121.358;2023-07-13T04:30:06;100703.38;;;29.70;37.02
64967;BME280;51710;38.732;-121.358;2023-07-13T04:32:32;100704.47;;;29.64;37.31
64967;BME280;51710;38.732;-121.358;2023-07-13T04:34:59;100710.25;;;29.57;37.27
64967;BME280;51710;38.732;-121.358;2023-07-13T04:37:26;100713.31;;;29.51;37.81
64967;BME280;51710;38.732;-121.358;2023-07-13T04:39:52;100715.56;;;29.44;37.93
64967;BME280;51710;38.732;-121.358;2023-07-13T04:42:19;100718.91;;;29.36;37.67
64967;BME280;51710;38.732;-121.358;2023-07-13T04:44:49;100724.66;;;29.29;37.58
64967;BME280;51710;38.732;-121.358;2023-07-13T04:47:15;100724.41;;;29.26;37.91
64967;BME280;51710;38.732;-121.358;2023-07-13T04:49:42;100718.38;;;29.19;38.01
64967;BME280;51710;38.732;-121.358;2023-07-13T04:52:08;100733.53;;;29.11;38.54
64967;BME280;51710;38.732;-121.358;2023-07-13T04:54:34;100726.09;;;29.02;38.58
64967;BME280;51710;38.732;-121.358;2023-07-13T04:57:01;100731.06;;;28.95;38.87
64967;BME280;51710;38.732;-121.358;2023-07-13T04:59:27;100735.72;;;28.84;39.09
64967;BME280;51710;38.732;-121.358;2023-07-13T05:01:53;100747.28;;;28.76;38.94
64967;BME280;51710;38.732;-121.358;2023-07-13T05:04:19;100742.59;;;28.66;38.86
64967;BME280;51710;38.732;-121.358;2023-07-13T05:06:46;100746.75;;;28.59;39.40
64967;BME280;51710;38.732;-121.358;2023-07-13T05:09:12;100743.72;;;28.50;39.38
64967;BME280;51710;38.732;-121.358;2023-07-13T05:11:38;100755.47;;;28.41;39.44
64967;BME280;51710;38.732;-121.358;2023-07-13T05:14:05;100756.84;;;28.33;39.40
64967;BME280;51710;38.732;-121.358;2023-07-13T05:16:31;100757.38;;;28.25;39.03
64967;BME280;51710;38.732;-121.358;2023-07-13T05:18:58;100759.56;;;28.18;39.04
64967;BME280;51710;38.732;-121.358;2023-07-13T05:21:24;100762.59;;;28.12;39.20
64967;BME280;51710;38.732;-121.358;2023-07-13T05:23:51;100767.78;;;28.08;39.29
64967;BME280;51710;38.732;-121.358;2023-07-13T05:26:18;100776.50;;;28.00;39.14
64967;BME280;51710;38.732;-121.358;2023-07-13T05:28:46;100775.63;;;27.90;39.48
64967;BME280;51710;38.732;-121.358;2023-07-13T05:31:13;100779.72;;;27.82;39.79
64967;BME280;51710;38.732;-121.358;2023-07-13T05:33:40;100780.78;;;27.76;39.46
64967;BME280;51710;38.732;-121.358;2023-07-13T05:36:06;100783.53;;;27.71;39.67
64967;BME280;51710;38.732;-121.358;2023-07-13T05:38:33;100773.66;;;27.65;40.05
64967;BME280;51710;38.732;-121.358;2023-07-13T05:41:00;100784.03;;;27.58;39.73
64967;BME280;51710;38.732;-121.358;2023-07-13T05:43:26;100794.41;;;27.51;39.83
64967;BME280;51710;38.732;-121.358;2023-07-13T05:45:54;100791.34;;;27.42;40.17
64967;BME280;51710;38.732;-121.358;2023-07-13T05:48:20;100792.66;;;27.35;40.05
64967;BME280;51710;38.732;-121.358;2023-07-13T05:50:47;100792.66;;;27.30;40.13
64967;BME280;51710;38.732;-121.358;2023-07-13T05:53:13;100790.38;;;27.27;40.19
64967;BME280;51710;38.732;-121.358;2023-07-13T05:55:47;100791.75;;;27.24;40.36
64967;BME280;51710;38.732;-121.358;2023-07-13T05:58:18;100792.56;;;27.20;40.43
64967;BME280;51710;38.732;-121.358;2023-07-13T06:00:47;100787.56;;;27.12;40.51
64967;BME280;51710;38.732;-121.358;2023-07-13T06:03:15;100791.88;;;27.03;40.41
64967;BME280;51710;38.732;-121.358;2023-07-13T06:05:42;100792.38;;;26.95;40.63
64967;BME280;51710;38.732;-121.358;2023-07-13T06:08:08;100791.78;;;26.88;40.52
64967;BME280;51710;38.732;-121.358;2023-07-13T06:10:35;100795.81;;;26.80;40.50
64967;BME280;51710;38.732;-121.358;2023-07-13T06:13:02;100800.41;;;26.75;40.60
64967;BME280;51710;38.732;-121.358;2023-07-13T06:15:29;100795.19;;;26.68;40.39
64967;BME280;51710;38.732;-121.358;2023-07-13T06:17:55;100798.09;;;26.61;40.84
64967;BME280;51710;38.732;-121.358;2023-07-13T06:20:21;100801.06;;;26.55;40.78
64967;BME280;51710;38.732;-121.358;2023-07-13T06:22:47;100802.94;;;26.49;40.87
64967;BME280;51710;38.732;-121.358;2023-07-13T06:25:14;100799.31;;;26.44;41.03
64967;BME280;51710;38.732;-121.358;2023-07-13T06:27:40;100808.78;;;26.36;40.86
64967;BME280;51710;38.732;-121.358;2023-07-13T06:30:06;100810.38;;;26.27;41.02
64967;BME280;51710;38.732;-121.358;2023-07-13T06:32:33;100810.81;;;26.19;41.30
64967;BME280;51710;38.732;-121.358;2023-07-13T06:34:59;100807.97;;;26.09;41.24
64967;BME280;51710;38.732;-121.358;2023-07-13T06:37:25;100813.88;;;26.01;41.11
64967;BME280;51710;38.732;-121.358;2023-07-13T06:39:52;100808.84;;;25.93;41.30
64967;BME280;51710;38.732;-121.358;2023-07-13T06:42:18;100811.78;;;25.87;40.85
64967;BME280;51710;38.732;-121.358;2023-07-13T06:44:44;100816.03;;;25.78;41.52
64967;BME280;51710;38.732;-121.358;2023-07-13T06:47:10;100805.59;;;25.70;41.13
64967;BME280;51710;38.732;-121.358;2023-07-13T06:49:37;100818.59;;;25.63;41.11
64967;BME280;51710;38.732;-121.358;2023-07-13T06:52:03;100820.94;;;25.54;41.11
64967;BME280;51710;38.732;-121.358;2023-07-13T06:54:29;100808.88;;;25.50;40.95
64967;BME280;51710;38.732;-121.358;2023-07-13T06:56:56;100808.03;;;25.49;41.24
64967;BME280;51710;38.732;-121.358;2023-07-13T06:59:22;100814.84;;;25.47;41.48
64967;BME280;51710;38.732;-121.358;2023-07-13T07:01:48;100808.22;;;25.43;40.99
64967;BME280;51710;38.732;-121.358;2023-07-13T07:04:14;100802.47;;;25.39;41.46
64967;BME280;51710;38.732;-121.358;2023-07-13T07:06:41;100809.44;;;25.35;41.01
64967;BME280;51710;38.732;-121.358;2023-07-13T07:09:07;100808.88;;;25.33;41.44
64967;BME280;51710;38.732;-121.358;2023-07-13T07:11:34;100805.28;;;25.28;41.17
64967;BME280;51710;38.732;-121.358;2023-07-13T07:14:00;100801.66;;;25.22;41.27
64967;BME280;51710;38.732;-121.358;2023-07-13T07:16:27;100797.19;;;25.16;41.32
64967;BME280;51710;38.732;-121.358;2023-07-13T07:18:54;100801.72;;;25.11;41.75
64967;BME280;51710;38.732;-121.358;2023-07-13T07:21:21;100798.84;;;25.01;41.82
64967;BME280;51710;38.732;-121.358;2023-07-13T07:23:49;100808.06;;;24.95;41.65
64967;BME280;51710;38.732;-121.358;2023-07-13T07:26:15;100805.22;;;24.90;41.96
64967;BME280;51710;38.732;-121.358;2023-07-13T07:28:41;100805.66;;;24.82;42.05
64967;BME280;51710;38.732;-121.358;2023-07-13T07:31:08;100807.47;;;24.76;42.04
64967;BME280;51710;38.732;-121.358;2023-07-13T07:33:35;100814.13;;;24.69;42.19
64967;BME280;51710;38.732;-121.358;2023-07-13T07:36:02;100806.59;;;24.59;42.71
64967;BME280;51710;38.732;-121.358;2023-07-13T07:38:29;100809.75;;;24.51;42.70
64967;BME280;51710;38.732;-121.358;2023-07-13T07:40:55;100800.31;;;24.42;42.67
64967;BME280;51710;38.732;-121.358;2023-07-13T07:43:21;100801.53;;;24.34;42.98
64967;BME280;51710;38.732;-121.358;2023-07-13T07:45:47;100806.31;;;24.27;43.26
64967;BME280;51710;38.732;-121.358;2023-07-13T07:48:14;100805.72;;;24.25;42.84
64967;BME280;51710;38.732;-121.358;2023-07-13T07:50:40;100803.75;;;24.21;43.04
64967;BME280;51710;38.732;-121.358;2023-07-13T07:53:07;100800.69;;;24.17;43.19
64967;BME280;51710;38.732;-121.358;2023-07-13T07:55:36;100795.50;;;24.16;43.20
64967;BME280;51710;38.732;-121.358;2023-07-13T07:58:02;100798.72;;;24.13;43.40
64967;BME280;51710;38.732;-121.358;2023-07-13T08:00:28;100795.66;;;24.09;43.31
64967;BME280;51710;38.732;-121.358;2023-07-13T08:02:58;100800.50;;;24.07;43.43
64967;BME280;51710;38.732;-121.358;2023-07-13T08:05:26;100790.34;;;24.03;43.63
64967;BME280;51710;38.732;-121.358;2023-07-13T08:07:52;100802.53;;;24.00;43.69
64967;BME280;51710;38.732;-121.358;2023-07-13T08:10:19;100801.94;;;23.98;43.51
64967;BME280;51710;38.732;-121.358;2023-07-13T08:12:45;100799.91;;;23.94;43.58
64967;BME280;51710;38.732;-121.358;2023-07-13T08:15:14;100792.50;;;23.89;43.43
64967;BME280;51710;38.732;-121.358;2023-07-13T08:17:41;100797.00;;;23.84;43.70
64967;BME280;51710;38.732;-121.358;2023-07-13T08:20:08;100789.56;;;23.79;43.78
64967;BME280;51710;38.732;-121.358;2023-07-13T08:22:37;100798.44;;;23.75;43.66
64967;BME280;51710;38.732;-121.358;2023-07-13T08:25:03;100793.75;;;23.70;43.78
64967;BME280;51710;38.732;-121.358;2023-07-13T08:27:30;100789.38;;;23.69;44.01
64967;BME280;51710;38.732;-121.358;2023-07-13T08:29:56;100796.13;;;23.67;43.98
64967;BME280;51710;38.732;-121.358;2023-07-13T08:32:23;100796.38;;;23.65;44.05
64967;BME280;51710;38.732;-121.358;2023-07-13T08:34:50;100793.63;;;23.65;44.32
64967;BME280;51710;38.732;-121.358;2023-07-13T08:37:17;100793.63;;;23.65;44.08
64967;BME280;51710;38.732;-121.358;2023-07-13T08:39:43;100793.88;;;23.64;43.99
64967;BME280;51710;38.732;-121.358;2023-07-13T08:47:23;100796.16;;;23.55;44.36
64967;BME280;51710;38.732;-121.358;2023-07-13T08:49:50;100786.31;;;23.54;44.46
64967;BME280;51710;38.732;-121.358;2023-07-13T08:52:34;100790.13;;;23.53;44.46
64967;BME280;51710;38.732;-121.358;2023-07-13T08:55:20;100794.72;;;23.53;44.31
64967;BME280;51710;38.732;-121.358;2023-07-13T08:57:53;100786.47;;;23.48;44.28
64967;BME280;51710;38.732;-121.358;2023-07-13T09:00:20;100797.00;;;23.44;44.54
64967;BME280;51710;38.732;-121.358;2023-07-13T09:02:57;100794.75;;;23.41;44.71
64967;BME280;51710;38.732;-121.358;2023-07-13T09:05:33;100791.47;;;23.39;44.69
64967;BME280;51710;38.732;-121.358;2023-07-13T09:10:54;100796.69;;;23.29;44.77
64967;BME280;51710;38.732;-121.358;2023-07-13T09:13:43;100791.31;;;23.22;44.83
64967;BME280;51710;38.732;-121.358;2023-07-13T09:16:15;100794.50;;;23.19;44.86
64967;BME280;51710;38.732;-121.358;2023-07-13T09:18:45;100795.84;;;23.17;45.00
64967;BME280;51710;38.732;-121.358;2023-07-13T09:21:34;100797.59;;;23.11;45.24
64967;BME280;51710;38.732;-121.358;2023-07-13T09:26:49;100801.50;;;23.04;45.37
64967;BME280;51710;38.732;-121.358;2023-07-13T09:29:36;100809.28;;;23.00;45.45
64967;BME280;51710;38.732;-121.358;2023-07-13T09:32:07;100804.94;;;22.99;45.46
64967;BME280;51710;38.732;-121.358;2023-07-13T09:34:36;100806.22;;;22.97;45.46
64967;BME280;51710;38.732;-121.358;2023-07-13T09:37:03;100805.63;;;22.95;45.67
64967;BME280;51710;38.732;-121.358;2023-07-13T09:39:35;100798.44;;;22.89;45.83
64967;BME280;51710;38.732;-121.358;2023-07-13T09:44:58;100811.91;;;22.84;45.60
64967;BME280;51710;38.732;-121.358;2023-07-13T09:47:32;100816.97;;;22.80;45.89
64967;BME280;51710;38.732;-121.358;2023-07-13T09:50:15;100809.50;;;22.76;45.88
64967;BME280;51710;38.732;-121.358;2023-07-13T09:52:47;100807.03;;;22.74;45.90
64967;BME280;51710;38.732;-121.358;2023-07-13T09:55:36;100808.78;;;22.69;46.20
64967;BME280;51710;38.732;-121.358;2023-07-13T09:58:18;100816.34;;;22.67;46.21
64967;BME280;51710;38.732;-121.358;2023-07-13T10:01:14;100813.25;;;22.63;46.20
64967;BME280;51710;38.732;-121.358;2023-07-13T10:03:52;100817.75;;;22.58;46.39
64967;BME280;51710;38.732;-121.358;2023-07-13T10:06:21;100822.84;;;22.54;46.60
64967;BME280;51710;38.732;-121.358;2023-07-13T10:08:55;100822.44;;;22.51;46.31
64967;BME280;51710;38.732;-121.358;2023-07-13T10:11:35;100829.38;;;22.47;46.80
64967;BME280;51710;38.732;-121.358;2023-07-13T10:14:09;100825.47;;;22.43;46.71
64967;BME280;51710;38.732;-121.358;2023-07-13T10:16:36;100823.22;;;22.40;46.84
64967;BME280;51710;38.732;-121.358;2023-07-13T10:19:26;100831.84;;;22.37;46.89
64967;BME280;51710;38.732;-121.358;2023-07-13T10:21:56;100825.19;;;22.32;46.78
64967;BME280;51710;38.732;-121.358;2023-07-13T10:24:36;100825.69;;;22.29;46.99
64967;BME280;51710;38.732;-121.358;2023-07-13T10:27:12;100826.13;;;22.26;47.21
64967;BME280;51710;38.732;-121.358;2023-07-13T10:29:51;100824.94;;;22.22;46.97
64967;BME280;51710;38.732;-121.358;2023-07-13T10:32:21;100828.69;;;22.21;47.14
64967;BME280;51710;38.732;-121.358;2023-07-13T10:34:49;100825.38;;;22.19;47.29
64967;BME280;51710;38.732;-121.358;2023-07-13T10:37:27;100819.59;;;22.16;47.40
64967;BME280;51710;38.732;-121.358;2023-07-13T10:39:55;100828.44;;;22.11;47.47
64967;BME280;51710;38.732;-121.358;2023-07-13T10:42:32;100825.56;;;22.06;47.74
64967;BME280;51710;38.732;-121.358;2023-07-13T10:45:01;100820.84;;;22.02;47.45
64967;BME280;51710;38.732;-121.358;2023-07-13T10:47:28;100828.63;;;21.98;47.82
64967;BME280;51710;38.732;-121.358;2023-07-13T10:49:57;100808.19;;;21.96;47.82
64967;BME280;51710;38.732;-121.358;2023-07-13T10:52:47;100817.84;;;21.92;47.88
64967;BME280;51710;38.732;-121.358;2023-07-13T10:55:36;100808.72;;;21.86;47.70
64967;BME280;51710;38.732;-121.358;2023-07-13T11:03:34;100815.19;;;21.67;48.39
64967;BME280;51710;38.732;-121.358;2023-07-13T11:06:12;100818.97;;;21.66;48.25
64967;BME280;51710;38.732;-121.358;2023-07-13T11:21:16;100817.94;;;21.49;48.59
64967;BME280;51710;38.732;-121.358;2023-07-13T11:23:44;100830.88;;;21.47;48.15
64967;BME280;51710;38.732;-121.358;2023-07-13T11:26:39;100831.34;;;21.44;48.58
64967;BME280;51710;38.732;-121.358;2023-07-13T11:29:25;100834.28;;;21.43;48.54
64967;BME280;51710;38.732;-121.358;2023-07-13T11:31:57;100836.97;;;21.43;48.59
64967;BME280;51710;38.732;-121.358;2023-07-13T11:34:30;100835.53;;;21.40;48.14
64967;BME280;51710;38.732;-121.358;2023-07-13T11:36:59;100832.22;;;21.38;48.54
64967;BME280;51710;38.732;-121.358;2023-07-13T11:39:34;100848.47;;;21.38;48.61
64967;BME280;51710;38.732;-121.358;2023-07-13T11:42:03;100843.50;;;21.35;48.64
64967;BME280;51710;38.732;-121.358;2023-07-13T11:44:33;100849.78;;;21.36;48.95
64967;BME280;51710;38.732;-121.358;2023-07-13T11:47:09;100838.09;;;21.35;48.99
64967;BME280;51710;38.732;-121.358;2023-07-13T11:49:43;100839.34;;;21.33;48.83
64967;BME280;51710;38.732;-121.358;2023-07-13T11:52:21;100844.00;;;21.25;49.18
64967;BME280;51710;38.732;-121.358;2023-07-13T11:54:55;100847.78;;;21.24;49.26
64967;BME280;51710;38.732;-121.358;2023-07-13T11:57:33;100843.63;;;21.22;49.27
64967;BME280;51710;38.732;-121.358;2023-07-13T12:00:15;100849.28;;;21.20;49.41
64967;BME280;51710;38.732;-121.358;2023-07-13T12:02:45;100859.09;;;21.21;49.38
64967;BME280;51710;38.732;-121.358;2023-07-13T12:05:13;100862.81;;;21.20;49.51
64967;BME280;51710;38.732;-121.358;2023-07-13T12:07:41;100870.34;;;21.18;49.76
64967;BME280;51710;38.732;-121.358;2023-07-13T12:12:57;100871.31;;;21.06;50.03
64967;BME280;51710;38.732;-121.358;2023-07-13T12:15:48;100872.59;;;20.97;50.15
64967;BME280;51710;38.732;-121.358;2023-07-13T12:18:18;100885.16;;;20.91;50.22
64967;BME280;51710;38.732;-121.358;2023-07-13T12:20:46;100885.38;;;20.90;50.24
64967;BME280;51710;38.732;-121.358;2023-07-13T12:23:32;100887.25;;;20.89;50.41
64967;BME280;51710;38.732;-121.358;2023-07-13T12:26:03;100889.94;;;20.89;50.37
64967;BME280;51710;38.732;-121.358;2023-07-13T12:28:46;100897.22;;;20.89;50.67
64967;BME280;51710;38.732;-121.358;2023-07-13T12:31:40;100898.28;;;20.88;50.59
64967;BME280;51710;38.732;-121.358;2023-07-13T12:34:10;100902.06;;;20.87;50.59
64967;BME280;51710;38.732;-121.358;2023-07-13T12:36:41;100906.63;;;20.86;50.86
64967;BME280;51710;38.732;-121.358;2023-07-13T12:39:24;100905.81;;;20.86;50.86
64967;BME280;51710;38.732;-121.358;2023-07-13T12:41:53;100901.44;;;20.85;50.68
64967;BME280;51710;38.732;-121.358;2023-07-13T12:44:29;100901.88;;;20.82;50.98
64967;BME280;51710;38.732;-121.358;2023-07-13T12:46:59;100902.31;;;20.79;50.99
64967;BME280;51710;38.732;-121.358;2023-07-13T12:49:32;100902.75;;;20.76;50.99
64967;BME280;51710;38.732;-121.358;2023-07-13T12:52:02;100903.78;;;20.75;51.15
64967;BME280;51710;38.732;-121.358;2023-07-13T12:54:30;100904.84;;;20.74;51.17
64967;BME280;51710;38.732;-121.358;2023-07-13T12:56:59;100906.31;;;20.70;51.19
64967;BME280;51710;38.732;-121.358;2023-07-13T12:59:30;100898.66;;;20.67;51.52
64967;BME280;51710;38.732;-121.358;2023-07-13T13:01:59;100903.00;;;20.68;51.43
64967;BME280;51710;38.732;-121.358;2023-07-13T13:04:26;100911.13;;;20.68;51.32
64967;BME280;51710;38.732;-121.358;2023-07-13T13:07:03;100919.69;;;20.65;51.52
64967;BME280;51710;38.732;-121.358;2023-07-13T13:09:30;100910.72;;;20.64;51.75